Time;durP1;ratioP1;P1;durP2;ratioP2;P2;SDS_P1;SDS_P2;PMS_P1;PMS_P2;Temp;Humidity;BMP_temperature;BMP_pressure;BME280_temperature;BME280_humidity;BME280_pressure;Samples;Min_cycle;Max_cycle;Signal;HPM_P1;HPM_P2
2023/07/24 00:00:08;;;;;;;;;;;;;;;17.19;100.00;100504.50;5050937;28;20447;-60
2023/07/24 00:02:33;;;;;;;;;;;;;;;17.21;100.00;100497.56;5054173;28;19928;-60
2023/07/24 00:04:58;;;;;;;;;;;;;;;17.21;100.00;100502.75;5059154;28;19935;-59
2023/07/24 00:07:25;;;;;;;;;;;;;;;17.27;100.00;100496.66;5061499;28;19956;-59
2023/07/24 00:09:50;;;;;;;;;;;;;;;17.27;100.00;100491.47;5060317;27;19920;-60
2023/07/24 00:12:15;;;;;;;;;;;;;;;17.26;100.00;100494.94;5060482;28;19927;-60
2023/07/24 00:14:40;;;;;;;;;;;;;;;17.32;100.00;100493.19;5058387;28;19928;-58
2023/07/24 00:17:06;;;;;;;;;;;;;;;17.29;100.00;100481.94;5058368;28;19921;-58
2023/07/24 00:19:31;;;;;;;;;;;;;;;17.32;100.00;100484.53;5055244;27;19955;-60
2023/07/24 00:21:56;;;;;;;;;;;;;;;17.30;100.00;100478.47;5055752;28;19920;-60
2023/07/24 00:24:22;;;;;;;;;;;;;;;17.27;100.00;100474.16;5059472;28;19924;-59
2023/07/24 00:26:47;;;;;;;;;;;;;;;17.29;100.00;100469.81;5057266;28;20290;-60
2023/07/24 00:29:12;;;;;;;;;;;;;;;17.26;100.00;100461.16;5061161;27;19920;-59
2023/07/24 00:31:37;;;;;;;;;;;;;;;17.26;100.00;100458.56;5058617;28;19945;-59
2023/07/24 00:34:02;;;;;;;;;;;;;;;17.27;100.00;100460.28;5059126;28;19924;-60
2023/07/24 00:36:28;;;;;;;;;;;;;;;17.27;100.00;100455.09;5057814;28;19931;-60
2023/07/24 00:38:53;;;;;;;;;;;;;;;17.27;100.00;100450.75;5059371;28;19924;-59
2023/07/24 00:41:18;;;;;;;;;;;;;;;17.27;100.00;100460.28;5057269;28;19928;-60
2023/07/24 00:43:44;;;;;;;;;;;;;;;17.27;100.00;100458.56;5063532;28;19948;-60
2023/07/24 00:46:10;;;;;;;;;;;;;;;17.28;100.00;100449.88;5064105;28;19924;-59
2023/07/24 00:48:35;;;;;;;;;;;;;;;17.26;100.00;100449.03;5062321;28;19962;-60
2023/07/24 00:51:01;;;;;;;;;;;;;;;17.24;100.00;100432.59;5064006;28;20282;-60
2023/07/24 00:53:27;;;;;;;;;;;;;;;17.23;100.00;100437.78;5060485;27;19931;-59
2023/07/24 00:55:52;;;;;;;;;;;;;;;17.21;100.00;100447.34;5060763;28;19928;-61
2023/07/24 00:58:19;;;;;;;;;;;;;;;17.19;100.00;100436.97;5062732;28;20627;-60
2023/07/24 01:00:44;;;;;;;;;;;;;;;17.19;100.00;100425.72;5061006;28;19916;-59
2023/07/24 01:03:09;;;;;;;;;;;;;;;17.16;100.00;100430.03;5062715;28;20034;-60
2023/07/24 01:05:35;;;;;;;;;;;;;;;17.15;100.00;100428.31;5063241;28;20007;-61
2023/07/24 01:08:00;;;;;;;;;;;;;;;17.15;100.00;100430.03;5061493;28;19964;-60
2023/07/24 01:10:25;;;;;;;;;;;;;;;17.15;100.00;100422.25;5058533;28;20033;-59
2023/07/24 01:12:53;;;;;;;;;;;;;;;17.12;100.00;100420.56;5059214;27;19920;-60
2023/07/24 01:15:19;;;;;;;;;;;;;;;17.12;100.00;100422.28;5060223;28;20279;-59
2023/07/24 01:17:49;;;;;;;;;;;;;;;17.12;100.00;100420.56;5057018;28;19976;-59
2023/07/24 01:20:15;;;;;;;;;;;;;;;17.13;100.00;100413.63;5058117;28;19924;-59
2023/07/24 01:22:59;;;;;;;;;;;;;;;17.11;100.00;100408.44;5054514;27;19924;-60
2023/07/24 01:25:31;;;;;;;;;;;;;;;17.11;100.00;100410.16;5058514;28;20024;-60
2023/07/24 01:27:56;;;;;;;;;;;;;;;17.15;100.00;100404.06;5057170;28;19980;-59
2023/07/24 01:30:21;;;;;;;;;;;;;;;17.14;100.00;100413.59;5060330;28;19920;-60
2023/07/24 01:32:47;;;;;;;;;;;;;;;17.15;100.00;100404.06;5057936;28;19928;-60
2023/07/24 01:35:12;;;;;;;;;;;;;;;17.18;100.00;100400.59;5055274;28;20011;-59
2023/07/24 01:37:40;;;;;;;;;;;;;;;17.16;100.00;100398.84;5060506;28;19924;-59
2023/07/24 01:40:06;;;;;;;;;;;;;;;17.14;100.00;100399.75;5057038;28;19926;-59
2023/07/24 01:42:32;;;;;;;;;;;;;;;17.11;100.00;100392.84;5060737;28;20286;-60
2023/07/24 01:44:57;;;;;;;;;;;;;;;17.11;100.00;100398.03;5055659;28;20201;-60
2023/07/24 01:47:22;;;;;;;;;;;;;;;17.11;100.00;100381.59;5062379;28;20436;-59
2023/07/24 01:49:48;;;;;;;;;;;;;;;17.10;100.00;100390.25;5056801;27;19974;-59
2023/07/24 01:52:13;;;;;;;;;;;;;;;17.13;100.00;100388.50;5034997;28;19959;-59
2023/07/24 01:54:38;;;;;;;;;;;;;;;17.10;100.00;100377.25;5059728;28;19925;-60
2023/07/24 01:57:04;;;;;;;;;;;;;;;17.10;100.00;100378.09;5044827;27;20428;-60
2023/07/24 01:59:29;;;;;;;;;;;;;;;17.10;100.00;100378.09;5059837;28;19963;-60
2023/07/24 02:01:55;;;;;;;;;;;;;;;17.09;100.00;100372.94;5059462;27;19999;-60
2023/07/24 02:04:22;;;;;;;;;;;;;;;17.10;100.00;100377.25;5063785;28;20332;-60
2023/07/24 02:06:48;;;;;;;;;;;;;;;17.06;100.00;100366.03;5061505;27;19932;-58
2023/07/24 02:09:13;;;;;;;;;;;;;;;17.06;100.00;100368.63;5058058;28;20046;-60
2023/07/24 02:11:38;;;;;;;;;;;;;;;17.07;100.00;100367.75;5058663;28;19932;-59
2023/07/24 02:14:04;;;;;;;;;;;;;;;17.03;100.00;100359.97;5051595;27;20007;-59
2023/07/24 02:16:29;;;;;;;;;;;;;;;17.03;100.00;100357.38;5054268;28;20016;-59
2023/07/24 02:18:54;;;;;;;;;;;;;;;17.02;100.00;100351.31;5055953;28;19933;-60
2023/07/24 02:21:19;;;;;;;;;;;;;;;17.00;100.00;100355.69;5056682;28;19929;-60
2023/07/24 02:23:45;;;;;;;;;;;;;;;17.01;100.00;100360.00;5038854;28;19972;-60
2023/07/24 02:26:10;;;;;;;;;;;;;;;16.99;100.00;100356.56;5059070;28;19931;-58
2023/07/24 02:28:35;;;;;;;;;;;;;;;16.99;100.00;100359.16;5057141;28;20374;-60
2023/07/24 02:31:00;;;;;;;;;;;;;;;16.97;100.00;100353.09;5055520;28;20645;-61
2023/07/24 02:33:26;;;;;;;;;;;;;;;16.98;100.00;100354.81;5055306;28;19995;-59
2023/07/24 02:35:52;;;;;;;;;;;;;;;16.97;100.00;100355.69;5058093;28;19925;-60
2023/07/24 02:38:17;;;;;;;;;;;;;;;16.98;100.00;100354.81;5047772;27;19924;-59
2023/07/24 02:40:43;;;;;;;;;;;;;;;16.98;100.00;100357.41;5052928;28;20347;-59
2023/07/24 02:43:09;;;;;;;;;;;;;;;16.96;100.00;100351.38;5061036;28;20003;-60
2023/07/24 02:45:34;;;;;;;;;;;;;;;17.00;100.00;100360.00;5061532;28;20060;-61
2023/07/24 02:48:01;;;;;;;;;;;;;;;16.92;100.00;100360.03;5060100;28;20008;-61
2023/07/24 02:50:27;;;;;;;;;;;;;;;16.89;100.00;100357.47;5045344;27;20378;-61
2023/07/24 02:52:52;;;;;;;;;;;;;;;16.90;100.00;100364.38;5063668;27;19917;-60
2023/07/24 02:55:17;;;;;;;;;;;;;;;16.82;100.00;100354.06;5063450;28;19912;-60
2023/07/24 02:57:42;;;;;;;;;;;;;;;16.80;100.00;100341.94;5066941;27;19927;-61
2023/07/24 03:00:08;;;;;;;;;;;;;;;16.75;100.00;100339.38;5063078;28;19946;-61
2023/07/24 03:02:33;;;;;;;;;;;;;;;16.74;100.00;100341.97;5064292;27;19920;-63
2023/07/24 03:04:58;;;;;;;;;;;;;;;16.73;100.00;100338.50;5060944;28;19964;-62
2023/07/24 03:07:24;;;;;;;;;;;;;;;16.70;100.00;100337.66;5061101;28;19924;-64
2023/07/24 03:09:50;;;;;;;;;;;;;;;16.65;100.00;100335.06;5060351;28;19928;-64
2023/07/24 03:12:15;;;;;;;;;;;;;;;16.60;100.00;100337.69;5058499;28;19938;-62
2023/07/24 03:14:41;;;;;;;;;;;;;;;16.58;100.00;100335.97;5036916;28;19920;-63
2023/07/24 03:17:06;;;;;;;;;;;;;;;16.48;100.00;100337.75;5033940;28;19937;-62
2023/07/24 03:19:31;;;;;;;;;;;;;;;16.43;100.00;100330.84;5040375;27;20397;-62
2023/07/24 03:21:56;;;;;;;;;;;;;;;16.36;100.00;100332.59;5056013;28;19920;-64
2023/07/24 03:24:22;;;;;;;;;;;;;;;16.33;100.00;100333.50;5039962;28;19959;-64
2023/07/24 03:26:47;;;;;;;;;;;;;;;16.26;100.00;100321.41;5058697;28;19924;-63
2023/07/24 03:29:12;;;;;;;;;;;;;;;16.22;100.00;100319.69;5056811;28;19928;-62
2023/07/24 03:31:37;;;;;;;;;;;;;;;16.22;100.00;100331.81;5051439;27;20914;-63
2023/07/24 03:34:03;;;;;;;;;;;;;;;16.17;100.00;100320.56;5054249;28;19916;-63
2023/07/24 03:36:28;;;;;;;;;;;;;;;16.17;100.00;100320.56;5058063;28;19921;-62
2023/07/24 03:38:53;;;;;;;;;;;;;;;16.17;100.00;100326.63;5056955;28;19916;-62
2023/07/24 03:41:18;;;;;;;;;;;;;;;16.17;100.00;100330.94;5053252;27;20310;-62
2023/07/24 03:43:44;;;;;;;;;;;;;;;16.17;100.00;100329.22;5054377;28;19976;-60
2023/07/24 03:46:09;;;;;;;;;;;;;;;16.17;100.00;100313.66;5051547;28;20298;-61
2023/07/24 03:48:37;;;;;;;;;;;;;;;16.16;100.00;100314.53;5057228;28;20019;-61
2023/07/24 03:51:02;;;;;;;;;;;;;;;16.14;100.00;100311.09;5057789;28;19928;-62
2023/07/24 03:53:28;;;;;;;;;;;;;;;16.12;100.00;100319.72;5060544;28;20364;-60
2023/07/24 03:55:53;;;;;;;;;;;;;;;16.11;100.00;100325.78;5059490;28;19916;-62
2023/07/24 03:58:19;;;;;;;;;;;;;;;16.10;100.00;100335.31;5042638;28;20715;-61
2023/07/24 04:00:44;;;;;;;;;;;;;;;16.08;100.00;100324.94;5061214;28;19920;-62
2023/07/24 04:03:09;;;;;;;;;;;;;;;16.08;100.00;100326.66;5063854;28;20363;-62
2023/07/24 04:05:35;;;;;;;;;;;;;;;16.06;100.00;100329.25;5066215;28;19924;-60
2023/07/24 04:08:00;;;;;;;;;;;;;;;16.04;100.00;100328.41;5065825;28;20066;-59
2023/07/24 04:10:26;;;;;;;;;;;;;;;16.05;100.00;100330.13;5063271;28;20404;-61
2023/07/24 04:12:51;;;;;;;;;;;;;;;16.02;100.00;100326.69;5064397;28;19969;-61
2023/07/24 04:15:17;;;;;;;;;;;;;;;16.00;100.00;100333.59;5058702;28;19916;-62
2023/07/24 04:17:42;;;;;;;;;;;;;;;15.99;100.00;100337.06;5060664;28;19924;-62
2023/07/24 04:20:09;;;;;;;;;;;;;;;15.98;100.00;100330.16;5075192;28;21373;-62
2023/07/24 04:22:34;;;;;;;;;;;;;;;15.94;100.00;100337.06;5056852;27;19929;-62
2023/07/24 04:25:00;;;;;;;;;;;;;;;15.91;100.00;100336.22;5056215;28;19924;-61
2023/07/24 04:27:25;;;;;;;;;;;;;;;15.89;100.00;100343.97;5037902;28;19933;-62
2023/07/24 04:29:50;;;;;;;;;;;;;;;15.87;100.00;100350.91;5058018;28;20397;-62
2023/07/24 04:32:15;;;;;;;;;;;;;;;15.83;100.00;100338.78;5053387;28;20014;-63
2023/07/24 04:34:41;;;;;;;;;;;;;;;15.80;100.00;100336.22;5053440;28;19952;-62
2023/07/24 04:37:06;;;;;;;;;;;;;;;15.77;100.00;100333.63;5058274;28;19943;-62
2023/07/24 04:39:31;;;;;;;;;;;;;;;15.74;100.00;100331.06;5061277;28;19929;-62
2023/07/24 04:41:56;;;;;;;;;;;;;;;15.70;100.00;100337.97;5055657;28;19920;-61
2023/07/24 04:44:22;;;;;;;;;;;;;;;15.69;100.00;100341.41;5060462;28;20301;-61
2023/07/24 04:46:47;;;;;;;;;;;;;;;15.68;100.00;100347.47;5045247;27;19972;-61
2023/07/24 04:49:12;;;;;;;;;;;;;;;15.67;100.00;100343.16;5059698;28;19925;-61
2023/07/24 04:51:37;;;;;;;;;;;;;;;15.66;100.00;100340.59;5057132;28;19935;-60
2023/07/24 04:54:03;;;;;;;;;;;;;;;15.62;100.00;100338.81;5055852;28;20536;-61
2023/07/24 04:56:28;;;;;;;;;;;;;;;15.58;100.00;100340.53;5058127;28;19924;-60
2023/07/24 04:58:53;;;;;;;;;;;;;;;15.53;100.00;100335.38;5057079;28;19928;-60
2023/07/24 05:01:19;;;;;;;;;;;;;;;15.52;100.00;100343.13;5058793;27;19932;-60
2023/07/24 05:03:44;;;;;;;;;;;;;;;15.53;100.00;100347.44;5052757;28;19984;-60
2023/07/24 05:06:09;;;;;;;;;;;;;;;15.51;100.00;100344.00;5055789;28;19924;-59
2023/07/24 05:08:34;;;;;;;;;;;;;;;15.48;100.00;100344.88;5056234;28;19928;-59
2023/07/24 05:11:00;;;;;;;;;;;;;;;15.47;100.00;100348.34;5042537;28;20642;-60
2023/07/24 05:13:25;;;;;;;;;;;;;;;15.44;100.00;100342.28;5059589;28;20429;-60
2023/07/24 05:15:51;;;;;;;;;;;;;;;15.42;100.00;100337.09;5059905;28;20710;-59
2023/07/24 05:18:16;;;;;;;;;;;;;;;15.46;100.00;100346.56;5059787;28;20306;-59
2023/07/24 05:20:46;;;;;;;;;;;;;;;15.43;100.00;100354.38;5073035;28;19921;-59
2023/07/24 05:23:11;;;;;;;;;;;;;;;15.44;100.00;100357.81;5056948;28;19917;-60
2023/07/24 05:25:36;;;;;;;;;;;;;;;15.43;100.00;100359.56;5055118;28;20047;-58
2023/07/24 05:28:02;;;;;;;;;;;;;;;15.45;100.00;100359.53;5036139;27;20015;-59
2023/07/24 05:30:28;;;;;;;;;;;;;;;15.45;100.00;100360.41;5061218;28;19927;-60
2023/07/24 05:32:53;;;;;;;;;;;;;;;15.43;100.00;100361.28;5057327;28;19921;-59
2023/07/24 05:35:18;;;;;;;;;;;;;;;15.42;100.00;100352.66;5057101;28;19920;-59
2023/07/24 05:37:43;;;;;;;;;;;;;;;15.45;100.00;100368.19;5063191;28;20019;-59
2023/07/24 05:40:09;;;;;;;;;;;;;;;15.47;100.00;100360.41;5063563;28;20022;-60
2023/07/24 05:42:40;;;;;;;;;;;;;;;15.49;100.00;100356.09;5059286;28;19924;-59
2023/07/24 05:45:06;;;;;;;;;;;;;;;15.49;100.00;100367.31;5061628;27;19932;-60
2023/07/24 05:47:31;;;;;;;;;;;;;;;15.49;100.00;100364.72;5060700;28;19928;-59
2023/07/24 05:49:56;;;;;;;;;;;;;;;15.53;100.00;100360.41;5063476;28;19924;-60
2023/07/24 05:52:22;;;;;;;;;;;;;;;15.55;100.00;100359.56;5044890;28;19920;-58
2023/07/24 05:54:47;;;;;;;;;;;;;;;15.57;100.00;100364.72;5064634;28;19927;-60
2023/07/24 05:57:12;;;;;;;;;;;;;;;15.59;100.00;100367.31;5057238;28;19925;-59
2023/07/24 05:59:37;;;;;;;;;;;;;;;15.61;100.00;100365.59;5059698;27;20032;-59
2023/07/24 06:02:03;;;;;;;;;;;;;;;15.65;100.00;100368.22;5057073;27;19927;-59
2023/07/24 06:04:28;;;;;;;;;;;;;;;15.68;100.00;100381.16;5061072;28;19916;-60
2023/07/24 06:06:53;;;;;;;;;;;;;;;15.71;100.00;100381.19;5060896;28;19928;-59
2023/07/24 06:09:18;;;;;;;;;;;;;;;15.71;100.00;100380.28;5056782;28;19985;-59
2023/07/24 06:11:44;;;;;;;;;;;;;;;15.76;100.00;100371.66;5061229;27;19929;-58
2023/07/24 06:14:09;;;;;;;;;;;;;;;15.96;100.00;100363.88;5057053;28;20404;-58
2023/07/24 06:16:34;;;;;;;;;;;;;;;16.21;100.00;100379.38;5054888;28;19990;-58
2023/07/24 06:18:59;;;;;;;;;;;;;;;16.41;100.00;100385.34;5056914;28;19960;-57
2023/07/24 06:21:25;;;;;;;;;;;;;;;16.72;100.00;100380.06;5061361;28;19936;-56
2023/07/24 06:23:50;;;;;;;;;;;;;;;17.04;100.00;100383.34;5057378;28;20934;-57
2023/07/24 06:26:15;;;;;;;;;;;;;;;17.10;100.00;100385.03;5040629;28;20983;-58
2023/07/24 06:28:40;;;;;;;;;;;;;;;17.02;100.00;100385.09;5059986;28;19986;-57
2023/07/24 06:31:06;;;;;;;;;;;;;;;16.88;100.00;100386.91;5060416;27;19920;-58
2023/07/24 06:33:31;;;;;;;;;;;;;;;16.84;100.00;100382.59;5043919;28;19924;-57
2023/07/24 06:35:56;;;;;;;;;;;;;;;16.81;100.00;100386.09;5064496;28;20003;-57
2023/07/24 06:38:21;;;;;;;;;;;;;;;16.75;100.00;100385.25;5060367;27;20279;-57
2023/07/24 06:40:47;;;;;;;;;;;;;;;16.69;100.00;100385.25;5064838;27;20354;-57
2023/07/24 06:43:12;;;;;;;;;;;;;;;16.66;100.00;100377.47;5066251;27;19924;-58
2023/07/24 06:45:37;;;;;;;;;;;;;;;16.69;100.00;100385.25;5049521;28;19937;-57
2023/07/24 06:48:03;;;;;;;;;;;;;;;16.70;100.00;100377.47;5061318;28;19929;-57
2023/07/24 06:50:28;;;;;;;;;;;;;;;16.77;100.00;100380.91;5063091;28;19925;-57
2023/07/24 06:52:53;;;;;;;;;;;;;;;16.74;100.00;100386.97;5061796;27;20332;-57
2023/07/24 06:55:19;;;;;;;;;;;;;;;16.75;100.00;100380.94;5062828;28;20434;-59
2023/07/24 06:57:44;;;;;;;;;;;;;;;16.80;100.00;100379.16;5061575;28;20469;-57
2023/07/24 07:00:11;;;;;;;;;;;;;;;16.88;100.00;100371.34;5046408;28;19982;-56
2023/07/24 07:02:37;;;;;;;;;;;;;;;16.99;100.00;100377.34;5061846;28;19973;-57
2023/07/24 07:05:02;;;;;;;;;;;;;;;17.03;100.00;100384.22;5064909;28;19925;-57
2023/07/24 07:07:27;;;;;;;;;;;;;;;17.03;100.00;100384.22;5065805;28;20036;-57
2023/07/24 07:09:52;;;;;;;;;;;;;;;17.02;100.00;100384.25;5065224;28;19929;-57
2023/07/24 07:12:18;;;;;;;;;;;;;;;16.93;100.00;100381.69;5054105;27;19927;-56
2023/07/24 07:14:43;;;;;;;;;;;;;;;16.89;100.00;100380.84;5065677;27;20007;-57
2023/07/24 07:17:08;;;;;;;;;;;;;;;16.91;100.00;100383.44;5058897;27;19972;-57
2023/07/24 07:19:35;;;;;;;;;;;;;;;16.90;100.00;100377.38;5061345;28;19920;-56
2023/07/24 07:22:01;;;;;;;;;;;;;;;16.89;100.00;100381.72;5058296;28;20382;-59
2023/07/24 07:24:26;;;;;;;;;;;;;;;16.86;100.00;100373.91;5057465;28;19972;-60
2023/07/24 07:26:51;;;;;;;;;;;;;;;16.83;100.00;100379.16;5056910;28;19932;-55
2023/07/24 07:29:17;;;;;;;;;;;;;;;16.81;100.00;100380.03;5057798;28;20387;-56
2023/07/24 07:31:42;;;;;;;;;;;;;;;16.77;100.00;100376.59;5041023;28;20019;-55
2023/07/24 07:34:07;;;;;;;;;;;;;;;16.72;100.00;100378.34;5057829;28;19926;-47
2023/07/24 07:36:32;;;;;;;;;;;;;;;16.67;100.00;100374.84;5055536;28;19935;-46
2023/07/24 07:38:57;;;;;;;;;;;;;;;16.63;100.00;100370.56;5057840;28;19972;-47
2023/07/24 07:41:23;;;;;;;;;;;;;;;16.65;100.00;100380.94;5055921;28;19971;-51
2023/07/24 07:43:48;;;;;;;;;;;;;;;16.69;100.00;100374.88;5056807;28;22702;-49
2023/07/24 07:46:13;;;;;;;;;;;;;;;16.70;100.00;100371.41;5060108;28;20420;-47
2023/07/24 07:48:39;;;;;;;;;;;;;;;16.75;100.00;100369.69;5059275;28;20418;-49
2023/07/24 07:51:05;;;;;;;;;;;;;;;16.79;100.00;100374.81;5059160;28;19932;-49
2023/07/24 07:53:31;;;;;;;;;;;;;;;16.90;100.00;100364.38;5057283;28;21481;-48
2023/07/24 07:55:57;;;;;;;;;;;;;;;17.01;100.00;100372.97;5055294;28;19992;-51
2023/07/24 07:58:22;;;;;;;;;;;;;;;17.08;100.00;100377.28;5058188;28;20035;-48
2023/07/24 08:00:48;;;;;;;;;;;;;;;17.13;100.00;100374.66;5063598;28;20019;-50
2023/07/24 08:03:13;;;;;;;;;;;;;;;17.20;100.00;100385.84;5060318;28;20636;-50
2023/07/24 08:05:38;;;;;;;;;;;;;;;17.21;100.00;100382.38;5056397;28;20354;-52
2023/07/24 08:08:04;;;;;;;;;;;;;;;17.22;100.00;100390.16;5064008;28;19921;-48
2023/07/24 08:10:29;;;;;;;;;;;;;;;17.24;100.00;100382.38;5062642;28;19924;-50
2023/07/24 08:12:54;;;;;;;;;;;;;;;17.22;100.00;100387.56;5045294;28;20180;-53
2023/07/24 08:15:19;;;;;;;;;;;;;;;17.14;100.00;100381.56;5063322;28;19968;-53
2023/07/24 08:17:45;;;;;;;;;;;;;;;17.08;100.00;100387.66;5037924;27;19936;-53
2023/07/24 08:20:10;;;;;;;;;;;;;;;17.08;100.00;100390.25;5042658;28;19921;-53
2023/07/24 08:22:35;;;;;;;;;;;;;;;17.15;100.00;100388.47;5039725;28;20024;-53
2023/07/24 08:25:00;;;;;;;;;;;;;;;17.29;100.00;100389.28;5040320;28;20394;-53
2023/07/24 08:27:26;;;;;;;;;;;;;;;17.44;100.00;100383.09;5037661;28;19942;-51
2023/07/24 08:29:52;;;;;;;;;;;;;;;17.60;100.00;100382.09;5042208;28;19917;-54
2023/07/24 08:32:18;;;;;;;;;;;;;;;17.91;100.00;100369.72;5039499;28;19921;-54
2023/07/24 08:34:43;;;;;;;;;;;;;;;18.25;100.00;100377.16;5040645;28;19940;-50
2023/07/24 08:37:08;;;;;;;;;;;;;;;18.35;100.00;100389.19;5039972;28;20651;-53
2023/07/24 08:39:34;;;;;;;;;;;;;;;18.35;100.00;100383.13;5040259;28;19928;-55
2023/07/24 08:41:59;;;;;;;;;;;;;;;18.33;100.00;100379.69;5042432;28;20402;-54
2023/07/24 08:44:25;;;;;;;;;;;;;;;18.19;100.00;100375.47;5040019;28;20305;-55
2023/07/24 08:46:51;;;;;;;;;;;;;;;18.10;100.00;100370.38;5040610;28;19933;-54
2023/07/24 08:49:17;;;;;;;;;;;;;;;17.98;100.00;100380.91;5036240;28;19912;-53
2023/07/24 08:51:43;;;;;;;;;;;;;;;17.90;100.00;100374.94;5040265;28;20293;-52
2023/07/24 08:54:09;;;;;;;;;;;;;;;17.91;100.00;100374.06;5038151;28;19921;-55
2023/07/24 08:56:36;;;;;;;;;;;;;;;17.88;100.00;100376.66;5040029;28;19924;-54
2023/07/24 08:59:01;;;;;;;;;;;;;;;17.81;100.00;100373.25;5041960;28;19917;-55
2023/07/24 09:01:26;;;;;;;;;;;;;;;17.74;100.00;100375.94;5043371;28;20036;-54
2023/07/24 09:03:51;;;;;;;;;;;;;;;17.62;100.00;100362.13;5044049;28;19921;-55
2023/07/24 09:06:17;;;;;;;;;;;;;;;17.61;100.00;100363.00;5042304;28;19925;-55
2023/07/24 09:08:43;;;;;;;;;;;;;;;17.65;100.00;100364.72;5041490;28;19934;-55
2023/07/24 09:11:09;;;;;;;;;;;;;;;17.73;100.00;100362.09;5043300;28;19952;-56
2023/07/24 09:13:40;;;;;;;;;;;;;;;17.78;100.00;100349.03;5038249;28;19968;-54
2023/07/24 09:16:05;;;;;;;;;;;;;;;17.88;100.00;100332.44;5040202;28;19925;-54
2023/07/24 09:18:41;;;;;;;;;;;;;;;18.15;100.00;100334.75;5054352;28;20893;-54
2023/07/24 09:21:06;;;;;;;;;;;;;;;18.38;100.00;100333.59;5059263;28;19923;-56
2023/07/24 09:23:32;;;;;;;;;;;;;;;18.53;100.00;100336.03;5059645;28;19924;-56
2023/07/24 09:25:57;;;;;;;;;;;;;;;18.66;100.00;100331.53;5060866;28;19932;-55
2023/07/24 09:28:22;;;;;;;;;;;;;;;18.68;100.00;100335.00;5063702;28;19947;-57
2023/07/24 09:30:52;;;;;;;;;;;;;;;18.67;100.00;100328.94;5060852;28;19931;-58
2023/07/24 09:33:17;;;;;;;;;;;;;;;18.59;100.00;100343.78;5060207;28;20388;-57
2023/07/24 09:35:42;;;;;;;;;;;;;;;18.45;100.00;100336.13;5064532;27;19979;-58
2023/07/24 09:38:09;;;;;;;;;;;;;;;18.35;100.00;100325.84;5062193;28;19951;-57
2023/07/24 09:40:42;;;;;;;;;;;;;;;18.18;100.00;100319.09;5061288;28;19917;-58
2023/07/24 09:43:16;;;;;;;;;;;;;;;18.06;100.00;100308.84;5060564;28;20000;-58
2023/07/24 09:45:43;;;;;;;;;;;;;;;18.02;100.00;100312.38;5060621;28;19967;-56
2023/07/24 09:48:11;;;;;;;;;;;;;;;18.00;100.00;100295.91;5059258;28;19931;-57
2023/07/24 09:50:37;;;;;;;;;;;;;;;17.97;100.00;100295.09;5060947;28;19921;-57
2023/07/24 09:53:04;;;;;;;;;;;;;;;18.04;100.00;100300.19;5043380;28;20378;-55
2023/07/24 09:55:43;;;;;;;;;;;;;;;18.17;100.00;100293.09;5065101;28;19912;-56
2023/07/24 09:58:09;;;;;;;;;;;;;;;18.33;100.00;100291.19;5058238;28;19971;-56
2023/07/24 10:00:34;;;;;;;;;;;;;;;18.44;100.00;100295.38;5059405;28;19956;-55
2023/07/24 10:03:00;;;;;;;;;;;;;;;18.48;100.00;100297.03;5059502;28;19956;-58
2023/07/24 10:05:25;;;;;;;;;;;;;;;18.43;100.00;100296.22;5064045;28;19932;-57
2023/07/24 10:07:51;;;;;;;;;;;;;;;18.39;100.00;100285.91;5062804;28;19932;-57
2023/07/24 10:10:16;;;;;;;;;;;;;;;18.32;100.00;100272.13;5061863;27;20343;-56
2023/07/24 10:12:42;;;;;;;;;;;;;;;18.25;100.00;100283.44;5044271;28;19963;-57
2023/07/24 10:15:07;;;;;;;;;;;;;;;18.24;100.00;100281.72;5061881;28;19921;-56
2023/07/24 10:17:36;;;;;;;;;;;;;;;18.24;100.00;100281.72;5057025;28;19972;-57
2023/07/24 10:20:03;;;;;;;;;;;;;;;18.27;100.00;100292.13;5060033;27;20279;-56
2023/07/24 10:22:28;;;;;;;;;;;;;;;18.23;100.00;100296.50;5058236;28;19917;-57
2023/07/24 10:24:55;;;;;;;;;;;;;;;18.26;100.00;100297.31;5061975;28;19928;-57
2023/07/24 10:27:23;;;;;;;;;;;;;;;18.25;100.00;100300.81;5060240;28;19913;-56
2023/07/24 10:29:57;;;;;;;;;;;;;;;18.26;100.00;100308.63;5058069;28;19920;-56
2023/07/24 10:32:23;;;;;;;;;;;;;;;18.24;100.00;100312.97;5063558;28;20005;-56
2023/07/24 10:34:59;;;;;;;;;;;;;;;18.19;100.00;100315.63;5062806;28;19961;-56
2023/07/24 10:37:32;;;;;;;;;;;;;;;18.18;100.00;100313.03;5047886;27;20343;-52
2023/07/24 10:39:57;;;;;;;;;;;;;;;18.17;100.00;100313.94;5058766;27;19924;-53
2023/07/24 10:42:23;;;;;;;;;;;;;;;18.15;100.00;100316.56;5060470;28;19921;-54
2023/07/24 10:44:48;;;;;;;;;;;;;;;18.21;100.00;100303.47;5060535;28;20614;-52
2023/07/24 10:47:13;;;;;;;;;;;;;;;18.22;100.00;100299.97;5061573;28;19924;-53
2023/07/24 10:49:42;;;;;;;;;;;;;;;18.31;100.00;100313.75;5058929;28;19968;-53
2023/07/24 10:52:08;;;;;;;;;;;;;;;18.40;100.00;100324.06;5055453;27;19917;-53
2023/07/24 10:54:33;;;;;;;;;;;;;;;18.48;100.00;100323.06;5054157;28;19921;-54
2023/07/24 10:57:00;;;;;;;;;;;;;;;18.64;100.00;100336.75;5056507;27;19920;-53
2023/07/24 10:59:36;;;;;;;;;;;;;;;18.72;100.00;100350.56;5054713;28;19925;-52
2023/07/24 11:02:03;;;;;;;;;;;;;;;18.79;100.00;100337.47;5054234;28;19931;-55
2023/07/24 11:04:29;;;;;;;;;;;;;;;18.85;100.00;100342.59;5053559;28;19916;-53
2023/07/24 11:06:57;;;;;;;;;;;;;;;18.86;100.00;100341.69;5055438;28;20025;-52
2023/07/24 11:09:22;;;;;;;;;;;;;;;18.92;100.00;100337.25;5054902;28;19935;-55
2023/07/24 11:11:47;;;;;;;;;;;;;;;18.96;100.00;100335.47;5055360;28;19921;-51
2023/07/24 11:14:13;;;;;;;;;;;;;;;19.00;100.00;100332.81;5057646;28;19964;-55
2023/07/24 11:16:47;;;;;;;;;;;;;;;19.10;100.00;100335.25;5042885;27;20377;-52
2023/07/24 11:19:12;;;;;;;;;;;;;;;19.25;100.00;100327.22;5056566;28;19932;-53
2023/07/24 11:21:38;;;;;;;;;;;;;;;19.38;100.00;100328.72;5041415;28;20051;-52
2023/07/24 11:24:07;;;;;;;;;;;;;;;19.51;100.00;100339.81;5058611;28;19953;-48
2023/07/24 11:26:33;;;;;;;;;;;;;;;19.69;100.00;100331.72;5058619;28;20309;-50
2023/07/24 11:28:59;;;;;;;;;;;;;;;19.84;100.00;100333.19;5056719;28;19929;-51
2023/07/24 11:31:24;;;;;;;;;;;;;;;19.94;100.00;100334.72;5060928;27;19929;-49
2023/07/24 11:33:50;;;;;;;;;;;;;;;20.05;100.00;100330.16;5057455;28;19924;-48
2023/07/24 11:36:15;;;;;;;;;;;;;;;20.33;100.00;100333.09;5057836;28;19916;-51
2023/07/24 11:38:41;;;;;;;;;;;;;;;20.42;100.00;100323.34;5054422;28;19927;-49
2023/07/24 11:41:08;;;;;;;;;;;;;;;20.39;100.00;100337.34;5060716;28;20015;-51
2023/07/24 11:43:33;;;;;;;;;;;;;;;20.27;100.00;100329.75;5065337;28;19912;-51
2023/07/24 11:45:58;;;;;;;;;;;;;;;20.24;100.00;100332.41;5063598;27;19944;-52
2023/07/24 11:48:24;;;;;;;;;;;;;;;20.36;100.00;100327.78;5057836;27;20366;-51
2023/07/24 11:50:59;;;;;;;;;;;;;;;20.50;100.00;100334.50;5058523;28;19920;-51
2023/07/24 11:53:26;;;;;;;;;;;;;;;20.45;100.00;100334.63;5060324;28;20382;-52
2023/07/24 11:55:52;;;;;;;;;;;;;;;20.51;100.00;100320.59;5058022;28;19927;-51
2023/07/24 11:58:18;;;;;;;;;;;;;;;20.55;100.00;100317.00;5060233;28;19941;-50
2023/07/24 12:00:45;;;;;;;;;;;;;;;20.50;98.12;100317.09;5053638;28;20375;-52
2023/07/24 12:03:10;;;;;;;;;;;;;;;20.56;100.00;100306.50;5059555;28;20521;-51
2023/07/24 12:05:43;;;;;;;;;;;;;;;20.75;100.00;100313.94;5060018;28;19933;-51
2023/07/24 12:08:08;;;;;;;;;;;;;;;20.95;98.75;100316.13;5039785;28;20421;-51
2023/07/24 12:10:35;;;;;;;;;;;;;;;21.04;95.37;100315.88;5058453;28;19948;-50
2023/07/24 12:13:01;;;;;;;;;;;;;;;21.08;97.00;100299.25;5061559;28;19917;-51
2023/07/24 12:15:29;;;;;;;;;;;;;;;21.25;93.87;100304.94;5056390;28;19921;-55
2023/07/24 12:17:54;;;;;;;;;;;;;;;21.41;94.50;100302.81;5056032;28;20394;-56
2023/07/24 12:20:19;;;;;;;;;;;;;;;21.66;93.31;100301.28;5062148;28;19917;-55